sensor_id;sensor_type;location;lat;lon;timestamp;temperature;humidity
15574;DHT22;7888;46.748;8.102;2023-09-12T00:02:24;24.90;48.90
15574;DHT22;7888;46.748;8.102;2023-09-12T00:04:49;24.90;48.80
15574;DHT22;7888;46.748;8.102;2023-09-12T00:07:16;24.80;48.80
15574;DHT22;7888;46.748;8.102;2023-09-12T00:09:42;24.80;49.00
15574;DHT22;7888;46.748;8.102;2023-09-12T00:12:07;24.80;48.90
15574;DHT22;7888;46.748;8.102;2023-09-12T00:14:33;24.80;48.90
15574;DHT22;7888;46.748;8.102;2023-09-12T00:17:00;24.80;48.60
15574;DHT22;7888;46.748;8.102;2023-09-12T00:19:25;24.80;49.10
15574;DHT22;7888;46.748;8.102;2023-09-12T00:21:51;24.70;49.00
15574;DHT22;7888;46.748;8.102;2023-09-12T00:24:18;24.70;49.10
15574;DHT22;7888;46.748;8.102;2023-09-12T00:26:44;24.70;49.10
15574;DHT22;7888;46.748;8.102;2023-09-12T00:29:09;24.70;49.00
15574;DHT22;7888;46.748;8.102;2023-09-12T00:31:35;24.70;49.30
15574;DHT22;7888;46.748;8.102;2023-09-12T00:34:01;24.60;49.30
15574;DHT22;7888;46.748;8.102;2023-09-12T00:36:27;24.60;49.40
15574;DHT22;7888;46.748;8.102;2023-09-12T00:38:52;24.60;49.60
15574;DHT22;7888;46.748;8.102;2023-09-12T00:41:18;24.60;49.50
15574;DHT22;7888;46.748;8.102;2023-09-12T00:43:44;24.60;49.50
15574;DHT22;7888;46.748;8.102;2023-09-12T00:46:09;24.50;49.50
15574;DHT22;7888;46.748;8.102;2023-09-12T00:48:36;24.50;49.50
15574;DHT22;7888;46.748;8.102;2023-09-12T00:51:03;24.50;49.80
15574;DHT22;7888;46.748;8.102;2023-09-12T00:53:30;24.50;50.30
15574;DHT22;7888;46.748;8.102;2023-09-12T00:55:57;24.40;49.80
15574;DHT22;7888;46.748;8.102;2023-09-12T00:58:25;24.40;49.70
15574;DHT22;7888;46.748;8.102;2023-09-12T01:00:52;24.40;49.80
15574;DHT22;7888;46.748;8.102;2023-09-12T01:03:18;24.40;50.00
15574;DHT22;7888;46.748;8.102;2023-09-12T01:05:44;24.30;49.80
15574;DHT22;7888;46.748;8.102;2023-09-12T01:08:11;24.30;49.80
15574;DHT22;7888;46.748;8.102;2023-09-12T01:10:37;24.30;50.00
15574;DHT22;7888;46.748;8.102;2023-09-12T01:13:03;24.30;50.10
15574;DHT22;7888;46.748;8.102;2023-09-12T01:15:29;24.30;50.10
15574;DHT22;7888;46.748;8.102;2023-09-12T01:17:55;24.20;49.90
15574;DHT22;7888;46.748;8.102;2023-09-12T01:20:31;24.20;50.10
15574;DHT22;7888;46.748;8.102;2023-09-12T01:26:17;24.20;50.40
15574;DHT22;7888;46.748;8.102;2023-09-12T01:28:51;24.20;50.20
15574;DHT22;7888;46.748;8.102;2023-09-12T01:31:20;24.10;50.20
15574;DHT22;7888;46.748;8.102;2023-09-12T01:33:48;24.10;50.10
15574;DHT22;7888;46.748;8.102;2023-09-12T01:36:14;24.10;50.30
15574;DHT22;7888;46.748;8.102;2023-09-12T01:38:41;24.10;50.50
15574;DHT22;7888;46.748;8.102;2023-09-12T01:41:07;24.00;50.50
15574;DHT22;7888;46.748;8.102;2023-09-12T01:43:36;24.10;50.60
15574;DHT22;7888;46.748;8.102;2023-09-12T01:46:04;24.10;50.80
15574;DHT22;7888;46.748;8.102;2023-09-12T01:48:33;24.00;50.80
15574;DHT22;7888;46.748;8.102;2023-09-12T01:51:02;24.00;50.80
15574;DHT22;7888;46.748;8.102;2023-09-12T01:53:30;24.00;50.80
15574;DHT22;7888;46.748;8.102;2023-09-12T01:55:58;23.90;50.60
15574;DHT22;7888;46.748;8.102;2023-09-12T01:58:25;23.90;50.80
15574;DHT22;7888;46.748;8.102;2023-09-12T02:00:52;23.90;50.80
15574;DHT22;7888;46.748;8.102;2023-09-12T02:03:17;23.90;50.80
15574;DHT22;7888;46.748;8.102;2023-09-12T02:05:43;23.90;51.00
15574;DHT22;7888;46.748;8.102;2023-09-12T02:08:09;23.90;51.00
15574;DHT22;7888;46.748;8.102;2023-09-12T02:10:35;23.80;51.00
15574;DHT22;7888;46.748;8.102;2023-09-12T02:13:01;23.90;51.00
15574;DHT22;7888;46.748;8.102;2023-09-12T02:15:26;23.80;51.00
15574;DHT22;7888;46.748;8.102;2023-09-12T02:17:52;23.80;51.00
15574;DHT22;7888;46.748;8.102;2023-09-12T02:20:18;23.80;51.00
15574;DHT22;7888;46.748;8.102;2023-09-12T02:22:45;23.80;51.10
15574;DHT22;7888;46.748;8.102;2023-09-12T02:25:10;23.80;51.20
15574;DHT22;7888;46.748;8.102;2023-09-12T02:27:36;23.80;51.20
15574;DHT22;7888;46.748;8.102;2023-09-12T02:30:02;23.70;51.10
15574;DHT22;7888;46.748;8.102;2023-09-12T02:32:29;23.70;51.00
15574;DHT22;7888;46.748;8.102;2023-09-12T02:34:55;23.70;51.10
15574;DHT22;7888;46.748;8.102;2023-09-12T02:37:22;23.70;51.30
15574;DHT22;7888;46.748;8.102;2023-09-12T02:39:48;23.70;51.10
15574;DHT22;7888;46.748;8.102;2023-09-12T02:42:14;23.70;51.20
15574;DHT22;7888;46.748;8.102;2023-09-12T02:44:40;23.60;51.00
15574;DHT22;7888;46.748;8.102;2023-09-12T02:47:05;23.60;51.10
15574;DHT22;7888;46.748;8.102;2023-09-12T02:49:31;23.60;51.20
15574;DHT22;7888;46.748;8.102;2023-09-12T02:51:57;23.50;51.40
15574;DHT22;7888;46.748;8.102;2023-09-12T02:54:23;23.50;51.60
15574;DHT22;7888;46.748;8.102;2023-09-12T02:56:48;23.50;51.70
15574;DHT22;7888;46.748;8.102;2023-09-12T02:59:14;23.50;51.70
15574;DHT22;7888;46.748;8.102;2023-09-12T03:01:40;23.50;51.70
15574;DHT22;7888;46.748;8.102;2023-09-12T03:04:06;23.60;51.80
15574;DHT22;7888;46.748;8.102;2023-09-12T03:06:31;23.50;51.60
15574;DHT22;7888;46.748;8.102;2023-09-12T03:08:58;23.50;51.60
15574;DHT22;7888;46.748;8.102;2023-09-12T03:11:26;23.50;51.50
15574;DHT22;7888;46.748;8.102;2023-09-12T03:13:53;23.50;51.70
15574;DHT22;7888;46.748;8.102;2023-09-12T03:16:18;23.50;51.70
15574;DHT22;7888;46.748;8.102;2023-09-12T03:18:44;23.50;51.70
15574;DHT22;7888;46.748;8.102;2023-09-12T03:21:10;23.50;51.70
15574;DHT22;7888;46.748;8.102;2023-09-12T03:23:36;23.50;51.70
15574;DHT22;7888;46.748;8.102;2023-09-12T03:26:05;23.50;51.60
15574;DHT22;7888;46.748;8.102;2023-09-12T03:28:33;23.50;51.60
15574;DHT22;7888;46.748;8.102;2023-09-12T03:31:12;23.40;51.40
15574;DHT22;7888;46.748;8.102;2023-09-12T03:33:40;23.40;51.80
15574;DHT22;7888;46.748;8.102;2023-09-12T03:36:07;23.40;51.80
15574;DHT22;7888;46.748;8.102;2023-09-12T03:38:34;23.40;51.90
15574;DHT22;7888;46.748;8.102;2023-09-12T03:41:00;23.40;52.00
15574;DHT22;7888;46.748;8.102;2023-09-12T03:43:27;23.40;51.70
15574;DHT22;7888;46.748;8.102;2023-09-12T03:45:53;23.40;51.80
15574;DHT22;7888;46.748;8.102;2023-09-12T03:48:19;23.40;52.00
15574;DHT22;7888;46.748;8.102;2023-09-12T03:50:45;23.40;51.90
15574;DHT22;7888;46.748;8.102;2023-09-12T03:53:13;23.40;51.80
15574;DHT22;7888;46.748;8.102;2023-09-12T03:55:41;23.40;51.80
15574;DHT22;7888;46.748;8.102;2023-09-12T03:58:07;23.40;51.90
15574;DHT22;7888;46.748;8.102;2023-09-12T04:00:33;23.30;51.80
15574;DHT22;7888;46.748;8.102;2023-09-12T04:02:59;23.30;51.90
15574;DHT22;7888;46.748;8.102;2023-09-12T04:05:26;23.30;51.80
15574;DHT22;7888;46.748;8.102;2023-09-12T04:07:52;23.30;51.60
15574;DHT22;7888;46.748;8.102;2023-09-12T04:10:19;23.30;51.60
15574;DHT22;7888;46.748;8.102;2023-09-12T04:12:46;23.30;51.70
15574;DHT22;7888;46.748;8.102;2023-09-12T04:15:12;23.30;51.80
15574;DHT22;7888;46.748;8.102;2023-09-12T04:17:37;23.20;51.80
15574;DHT22;7888;46.748;8.102;2023-09-12T04:20:03;23.20;51.80
15574;DHT22;7888;46.748;8.102;2023-09-12T04:22:33;23.20;51.80
15574;DHT22;7888;46.748;8.102;2023-09-12T04:24:58;23.20;51.80
15574;DHT22;7888;46.748;8.102;2023-09-12T04:27:24;23.20;51.70
15574;DHT22;7888;46.748;8.102;2023-09-12T04:29:50;23.20;51.60
15574;DHT22;7888;46.748;8.102;2023-09-12T04:32:16;23.20;51.50
15574;DHT22;7888;46.748;8.102;2023-09-12T04:34:48;23.10;51.70
15574;DHT22;7888;46.748;8.102;2023-09-12T04:37:15;23.10;51.60
15574;DHT22;7888;46.748;8.102;2023-09-12T04:39:40;23.10;51.60
15574;DHT22;7888;46.748;8.102;2023-09-12T04:42:06;23.10;51.80
15574;DHT22;7888;46.748;8.102;2023-09-12T04:44:40;23.10;51.90
15574;DHT22;7888;46.748;8.102;2023-09-12T04:47:06;23.00;52.10
15574;DHT22;7888;46.748;8.102;2023-09-12T04:49:33;23.00;52.00
15574;DHT22;7888;46.748;8.102;2023-09-12T04:51:59;23.00;52.00
15574;DHT22;7888;46.748;8.102;2023-09-12T04:54:25;23.00;52.10
15574;DHT22;7888;46.748;8.102;2023-09-12T04:56:51;23.00;51.70
15574;DHT22;7888;46.748;8.102;2023-09-12T04:59:17;22.90;51.90
15574;DHT22;7888;46.748;8.102;2023-09-12T05:01:42;22.90;52.00
15574;DHT22;7888;46.748;8.102;2023-09-12T05:04:08;22.90;52.10
15574;DHT22;7888;46.748;8.102;2023-09-12T05:06:35;22.90;52.00
15574;DHT22;7888;46.748;8.102;2023-09-12T05:09:01;22.90;52.10
15574;DHT22;7888;46.748;8.102;2023-09-12T05:11:28;22.90;52.20
15574;DHT22;7888;46.748;8.102;2023-09-12T05:13:54;22.80;52.30
15574;DHT22;7888;46.748;8.102;2023-09-12T05:16:20;22.80;52.30
15574;DHT22;7888;46.748;8.102;2023-09-12T05:18:46;22.80;52.70
15574;DHT22;7888;46.748;8.102;2023-09-12T05:21:11;22.80;52.30
15574;DHT22;7888;46.748;8.102;2023-09-12T05:23:37;22.80;52.40
15574;DHT22;7888;46.748;8.102;2023-09-12T05:26:03;22.80;52.30
15574;DHT22;7888;46.748;8.102;2023-09-12T05:28:29;22.80;52.30
15574;DHT22;7888;46.748;8.102;2023-09-12T05:30:54;22.80;52.40
15574;DHT22;7888;46.748;8.102;2023-09-12T05:33:20;22.80;52.50
15574;DHT22;7888;46.748;8.102;2023-09-12T05:35:46;22.80;52.60
15574;DHT22;7888;46.748;8.102;2023-09-12T05:38:12;22.80;52.70
15574;DHT22;7888;46.748;8.102;2023-09-12T05:40:38;22.80;52.80
15574;DHT22;7888;46.748;8.102;2023-09-12T05:43:03;22.90;53.10
15574;DHT22;7888;46.748;8.102;2023-09-12T05:45:29;22.80;53.10
15574;DHT22;7888;46.748;8.102;2023-09-12T05:47:58;22.90;53.30
15574;DHT22;7888;46.748;8.102;2023-09-12T05:50:24;22.90;53.10
15574;DHT22;7888;46.748;8.102;2023-09-12T05:52:50;22.90;52.70
15574;DHT22;7888;46.748;8.102;2023-09-12T05:55:17;22.90;52.80
15574;DHT22;7888;46.748;8.102;2023-09-12T05:57:45;22.90;53.00
15574;DHT22;7888;46.748;8.102;2023-09-12T06:00:13;22.80;53.10
15574;DHT22;7888;46.748;8.102;2023-09-12T06:02:40;22.90;53.10
15574;DHT22;7888;46.748;8.102;2023-09-12T06:05:07;22.90;53.10
15574;DHT22;7888;46.748;8.102;2023-09-12T06:07:34;22.90;53.00
15574;DHT22;7888;46.748;8.102;2023-09-12T06:10:00;22.90;53.10
15574;DHT22;7888;46.748;8.102;2023-09-12T06:12:26;22.90;53.00
15574;DHT22;7888;46.748;8.102;2023-09-12T06:14:52;23.00;53.00
15574;DHT22;7888;46.748;8.102;2023-09-12T06:17:20;23.00;52.80
15574;DHT22;7888;46.748;8.102;2023-09-12T06:19:47;23.10;52.80
15574;DHT22;7888;46.748;8.102;2023-09-12T06:22:15;23.10;52.80
15574;DHT22;7888;46.748;8.102;2023-09-12T06:24:42;23.10;52.90
15574;DHT22;7888;46.748;8.102;2023-09-12T06:27:09;23.20;52.80
15574;DHT22;7888;46.748;8.102;2023-09-12T06:29:37;23.20;52.70
15574;DHT22;7888;46.748;8.102;2023-09-12T06:32:03;23.20;52.70
15574;DHT22;7888;46.748;8.102;2023-09-12T06:34:29;23.20;52.90
15574;DHT22;7888;46.748;8.102;2023-09-12T06:36:55;23.30;52.90
15574;DHT22;7888;46.748;8.102;2023-09-12T06:39:21;23.30;52.90
15574;DHT22;7888;46.748;8.102;2023-09-12T06:41:46;23.40;53.00
15574;DHT22;7888;46.748;8.102;2023-09-12T06:44:12;23.40;53.00
15574;DHT22;7888;46.748;8.102;2023-09-12T06:46:38;23.50;52.90
15574;DHT22;7888;46.748;8.102;2023-09-12T06:49:04;23.60;53.10
15574;DHT22;7888;46.748;8.102;2023-09-12T06:51:30;23.70;53.20
15574;DHT22;7888;46.748;8.102;2023-09-12T06:53:55;23.80;52.80
15574;DHT22;7888;46.748;8.102;2023-09-12T06:56:21;23.90;52.70
15574;DHT22;7888;46.748;8.102;2023-09-12T06:58:50;23.90;52.60
15574;DHT22;7888;46.748;8.102;2023-09-12T07:01:18;24.10;52.70
15574;DHT22;7888;46.748;8.102;2023-09-12T07:03:44;24.20;52.80
15574;DHT22;7888;46.748;8.102;2023-09-12T07:06:09;24.30;52.70
15574;DHT22;7888;46.748;8.102;2023-09-12T07:08:35;24.40;52.50
15574;DHT22;7888;46.748;8.102;2023-09-12T07:11:02;24.50;52.40
15574;DHT22;7888;46.748;8.102;2023-09-12T07:13:32;24.60;52.50
15574;DHT22;7888;46.748;8.102;2023-09-12T07:15:59;24.80;52.60
15574;DHT22;7888;46.748;8.102;2023-09-12T07:18:25;24.90;52.70
15574;DHT22;7888;46.748;8.102;2023-09-12T07:20:58;25.00;52.50
15574;DHT22;7888;46.748;8.102;2023-09-12T07:23:25;25.10;52.00
15574;DHT22;7888;46.748;8.102;2023-09-12T07:25:51;25.20;52.00
15574;DHT22;7888;46.748;8.102;2023-09-12T07:28:17;25.30;51.70
15574;DHT22;7888;46.748;8.102;2023-09-12T07:30:45;25.40;51.50
15574;DHT22;7888;46.748;8.102;2023-09-12T07:33:12;25.40;51.20
15574;DHT22;7888;46.748;8.102;2023-09-12T07:35:37;25.50;51.30
15574;DHT22;7888;46.748;8.102;2023-09-12T07:38:04;25.50;51.40
15574;DHT22;7888;46.748;8.102;2023-09-12T07:40:29;25.60;51.50
15574;DHT22;7888;46.748;8.102;2023-09-12T07:42:55;25.70;51.40
15574;DHT22;7888;46.748;8.102;2023-09-12T07:45:21;25.80;51.40
15574;DHT22;7888;46.748;8.102;2023-09-12T07:47:47;25.90;51.40
15574;DHT22;7888;46.748;8.102;2023-09-12T07:50:13;25.90;51.30
15574;DHT22;7888;46.748;8.102;2023-09-12T07:52:39;26.00;51.40
15574;DHT22;7888;46.748;8.102;2023-09-12T07:55:07;26.10;51.30
15574;DHT22;7888;46.748;8.102;2023-09-12T07:57:34;26.20;51.10
15574;DHT22;7888;46.748;8.102;2023-09-12T08:00:00;26.20;50.80
15574;DHT22;7888;46.748;8.102;2023-09-12T08:02:27;26.30;50.60
15574;DHT22;7888;46.748;8.102;2023-09-12T08:04:53;26.40;50.30
15574;DHT22;7888;46.748;8.102;2023-09-12T08:07:19;26.50;49.50
15574;DHT22;7888;46.748;8.102;2023-09-12T08:12:14;26.60;48.30
15574;DHT22;7888;46.748;8.102;2023-09-12T08:14:39;26.60;48.50
15574;DHT22;7888;46.748;8.102;2023-09-12T08:17:05;26.60;49.20
15574;DHT22;7888;46.748;8.102;2023-09-12T08:19:31;26.60;48.60
15574;DHT22;7888;46.748;8.102;2023-09-12T08:21:56;26.70;48.50
15574;DHT22;7888;46.748;8.102;2023-09-12T08:24:22;26.70;48.60
15574;DHT22;7888;46.748;8.102;2023-09-12T08:26:48;26.70;48.40
15574;DHT22;7888;46.748;8.102;2023-09-12T08:29:15;26.80;48.20
15574;DHT22;7888;46.748;8.102;2023-09-12T08:31:40;26.80;48.20
15574;DHT22;7888;46.748;8.102;2023-09-12T08:34:06;26.90;48.20
15574;DHT22;7888;46.748;8.102;2023-09-12T08:36:32;26.90;48.70
15574;DHT22;7888;46.748;8.102;2023-09-12T08:38:57;27.10;48.70
15574;DHT22;7888;46.748;8.102;2023-09-12T08:41:26;27.20;48.80
15574;DHT22;7888;46.748;8.102;2023-09-12T08:43:52;27.30;48.60
15574;DHT22;7888;46.748;8.102;2023-09-12T08:46:20;27.30;48.10
15574;DHT22;7888;46.748;8.102;2023-09-12T08:48:47;27.40;47.80
15574;DHT22;7888;46.748;8.102;2023-09-12T08:51:15;27.40;47.40
15574;DHT22;7888;46.748;8.102;2023-09-12T08:53:41;27.50;47.10
15574;DHT22;7888;46.748;8.102;2023-09-12T08:56:07;27.50;46.90
15574;DHT22;7888;46.748;8.102;2023-09-12T08:58:35;27.60;46.50
15574;DHT22;7888;46.748;8.102;2023-09-12T09:01:02;27.60;46.80
15574;DHT22;7888;46.748;8.102;2023-09-12T09:03:29;27.70;47.00
15574;DHT22;7888;46.748;8.102;2023-09-12T09:05:56;27.70;47.20
15574;DHT22;7888;46.748;8.102;2023-09-12T09:08:24;27.80;47.50
15574;DHT22;7888;46.748;8.102;2023-09-12T09:10:58;27.90;47.50
15574;DHT22;7888;46.748;8.102;2023-09-12T09:13:25;28.00;47.00
15574;DHT22;7888;46.748;8.102;2023-09-12T09:16:13;28.10;47.20
15574;DHT22;7888;46.748;8.102;2023-09-12T09:18:59;28.30;46.50
15574;DHT22;7888;46.748;8.102;2023-09-12T09:21:28;28.50;46.80
15574;DHT22;7888;46.748;8.102;2023-09-12T09:24:03;28.60;46.70
15574;DHT22;7888;46.748;8.102;2023-09-12T09:26:49;28.80;46.40
15574;DHT22;7888;46.748;8.102;2023-09-12T09:29:20;28.90;45.80
15574;DHT22;7888;46.748;8.102;2023-09-12T09:31:49;29.00;46.00
15574;DHT22;7888;46.748;8.102;2023-09-12T09:34:20;29.10;46.00
15574;DHT22;7888;46.748;8.102;2023-09-12T09:36:51;29.20;45.90
15574;DHT22;7888;46.748;8.102;2023-09-12T09:39:23;29.30;45.70
15574;DHT22;7888;46.748;8.102;2023-09-12T09:41:55;29.30;45.80
15574;DHT22;7888;46.748;8.102;2023-09-12T09:44:23;29.40;45.50
15574;DHT22;7888;46.748;8.102;2023-09-12T09:46:55;29.40;45.60
15574;DHT22;7888;46.748;8.102;2023-09-12T09:49:23;29.40;45.40
15574;DHT22;7888;46.748;8.102;2023-09-12T09:51:49;29.50;45.40
15574;DHT22;7888;46.748;8.102;2023-09-12T09:54:15;29.40;45.20
15574;DHT22;7888;46.748;8.102;2023-09-12T09:56:48;29.50;45.20
15574;DHT22;7888;46.748;8.102;2023-09-12T09:59:16;29.40;44.80
15574;DHT22;7888;46.748;8.102;2023-09-12T10:01:45;29.40;45.00
15574;DHT22;7888;46.748;8.102;2023-09-12T10:04:11;29.40;45.10
15574;DHT22;7888;46.748;8.102;2023-09-12T10:06:38;29.40;45.20
15574;DHT22;7888;46.748;8.102;2023-09-12T10:09:12;29.30;45.10
15574;DHT22;7888;46.748;8.102;2023-09-12T10:11:40;29.30;45.00
15574;DHT22;7888;46.748;8.102;2023-09-12T10:14:08;29.40;45.90
15574;DHT22;7888;46.748;8.102;2023-09-12T10:16:45;29.40;45.40
15574;DHT22;7888;46.748;8.102;2023-09-12T10:19:23;29.40;45.10
15574;DHT22;7888;46.748;8.102;2023-09-12T10:24:53;29.60;44.90
15574;DHT22;7888;46.748;8.102;2023-09-12T10:27:22;29.70;45.20
15574;DHT22;7888;46.748;8.102;2023-09-12T10:29:50;29.80;45.00
15574;DHT22;7888;46.748;8.102;2023-09-12T10:32:19;29.80;44.70
15574;DHT22;7888;46.748;8.102;2023-09-12T10:34:48;29.90;44.60
15574;DHT22;7888;46.748;8.102;2023-09-12T10:37:19;29.90;44.60
15574;DHT22;7888;46.748;8.102;2023-09-12T10:39:49;30.00;44.20
15574;DHT22;7888;46.748;8.102;2023-09-12T10:42:16;30.10;44.30
15574;DHT22;7888;46.748;8.102;2023-09-12T10:44:44;30.20;44.30
15574;DHT22;7888;46.748;8.102;2023-09-12T10:47:12;30.20;44.10
15574;DHT22;7888;46.748;8.102;2023-09-12T10:49:39;30.30;43.80
15574;DHT22;7888;46.748;8.102;2023-09-12T10:52:09;30.30;43.60
15574;DHT22;7888;46.748;8.102;2023-09-12T10:54:39;30.20;43.00
15574;DHT22;7888;46.748;8.102;2023-09-12T10:57:10;30.20;42.80
15574;DHT22;7888;46.748;8.102;2023-09-12T11:02:39;30.10;42.50
15574;DHT22;7888;46.748;8.102;2023-09-12T11:05:07;30.10;42.60
15574;DHT22;7888;46.748;8.102;2023-09-12T11:07:57;30.10;43.40
15574;DHT22;7888;46.748;8.102;2023-09-12T11:10:25;30.20;43.40
15574;DHT22;7888;46.748;8.102;2023-09-12T11:12:55;30.20;43.40
15574;DHT22;7888;46.748;8.102;2023-09-12T11:15:26;30.20;43.10
15574;DHT22;7888;46.748;8.102;2023-09-12T11:18:04;30.30;43.10
15574;DHT22;7888;46.748;8.102;2023-09-12T11:20:59;30.20;42.80
15574;DHT22;7888;46.748;8.102;2023-09-12T11:23:28;30.20;42.70
15574;DHT22;7888;46.748;8.102;2023-09-12T11:26:05;30.20;42.90
15574;DHT22;7888;46.748;8.102;2023-09-12T11:28:32;30.20;42.70
15574;DHT22;7888;46.748;8.102;2023-09-12T11:30:58;30.20;42.90
15574;DHT22;7888;46.748;8.102;2023-09-12T11:33:25;30.20;43.60
15574;DHT22;7888;46.748;8.102;2023-09-12T11:35:54;30.20;43.00
15574;DHT22;7888;46.748;8.102;2023-09-12T11:38:30;30.20;43.00
15574;DHT22;7888;46.748;8.102;2023-09-12T11:40:58;30.20;42.70
15574;DHT22;7888;46.748;8.102;2023-09-12T11:43:26;30.20;42.80
15574;DHT22;7888;46.748;8.102;2023-09-12T11:45:54;30.20;42.70
15574;DHT22;7888;46.748;8.102;2023-09-12T11:48:21;30.20;42.70
15574;DHT22;7888;46.748;8.102;2023-09-12T11:50:55;30.20;43.00
15574;DHT22;7888;46.748;8.102;2023-09-12T11:53:27;30.20;43.00
15574;DHT22;7888;46.748;8.102;2023-09-12T11:55:59;30.10;43.10
15574;DHT22;7888;46.748;8.102;2023-09-12T11:58:26;30.00;43.10
15574;DHT22;7888;46.748;8.102;2023-09-12T12:00:56;30.00;43.30
15574;DHT22;7888;46.748;8.102;2023-09-12T12:03:25;29.90;43.30
15574;DHT22;7888;46.748;8.102;2023-09-12T12:05:52;29.90;43.50
15574;DHT22;7888;46.748;8.102;2023-09-12T12:08:20;29.80;43.70
15574;DHT22;7888;46.748;8.102;2023-09-12T12:10:55;29.70;43.90
15574;DHT22;7888;46.748;8.102;2023-09-12T12:13:23;29.60;43.90
15574;DHT22;7888;46.748;8.102;2023-09-12T12:15:49;29.60;44.00
15574;DHT22;7888;46.748;8.102;2023-09-12T12:18:15;29.50;44.20
15574;DHT22;7888;46.748;8.102;2023-09-12T12:20:42;29.50;45.00
15574;DHT22;7888;46.748;8.102;2023-09-12T12:23:08;29.40;45.40
15574;DHT22;7888;46.748;8.102;2023-09-12T12:25:34;29.40;45.60
15574;DHT22;7888;46.748;8.102;2023-09-12T12:28:02;29.30;45.40
15574;DHT22;7888;46.748;8.102;2023-09-12T12:30:34;29.30;45.20
15574;DHT22;7888;46.748;8.102;2023-09-12T12:33:02;29.20;44.90
15574;DHT22;7888;46.748;8.102;2023-09-12T12:35:33;29.10;44.60
15574;DHT22;7888;46.748;8.102;2023-09-12T12:37:59;29.00;44.60
15574;DHT22;7888;46.748;8.102;2023-09-12T12:40:26;29.00;45.30
15574;DHT22;7888;46.748;8.102;2023-09-12T12:42:52;28.90;45.00
15574;DHT22;7888;46.748;8.102;2023-09-12T12:45:22;28.80;44.80
15574;DHT22;7888;46.748;8.102;2023-09-12T12:47:54;28.70;44.60
15574;DHT22;7888;46.748;8.102;2023-09-12T12:50:23;28.60;44.30
15574;DHT22;7888;46.748;8.102;2023-09-12T12:52:49;28.70;44.00
15574;DHT22;7888;46.748;8.102;2023-09-12T12:55:15;28.60;43.40
15574;DHT22;7888;46.748;8.102;2023-09-12T12:57:45;28.70;42.80
15574;DHT22;7888;46.748;8.102;2023-09-12T13:00:14;28.70;42.60
15574;DHT22;7888;46.748;8.102;2023-09-12T13:02:43;28.80;42.10
15574;DHT22;7888;46.748;8.102;2023-09-12T13:05:41;28.90;41.90
15574;DHT22;7888;46.748;8.102;2023-09-12T13:08:07;29.10;42.10
15574;DHT22;7888;46.748;8.102;2023-09-12T13:10:33;29.20;42.00
15574;DHT22;7888;46.748;8.102;2023-09-12T13:12:59;29.30;41.80
15574;DHT22;7888;46.748;8.102;2023-09-12T13:15:25;29.50;41.30
15574;DHT22;7888;46.748;8.102;2023-09-12T13:17:50;29.60;40.40
15574;DHT22;7888;46.748;8.102;2023-09-12T13:20:16;29.60;40.20
15574;DHT22;7888;46.748;8.102;2023-09-12T13:22:42;29.80;39.70
15574;DHT22;7888;46.748;8.102;2023-09-12T13:25:09;29.80;39.50
15574;DHT22;7888;46.748;8.102;2023-09-12T13:27:35;29.90;39.40
15574;DHT22;7888;46.748;8.102;2023-09-12T13:30:00;30.00;39.40
15574;DHT22;7888;46.748;8.102;2023-09-12T13:32:27;30.10;39.20
15574;DHT22;7888;46.748;8.102;2023-09-12T13:34:53;30.20;38.90
15574;DHT22;7888;46.748;8.102;2023-09-12T13:37:19;30.30;38.80
15574;DHT22;7888;46.748;8.102;2023-09-12T13:39:45;30.40;38.30
15574;DHT22;7888;46.748;8.102;2023-09-12T13:42:14;30.50;37.70
15574;DHT22;7888;46.748;8.102;2023-09-12T13:44:44;30.60;38.00
15574;DHT22;7888;46.748;8.102;2023-09-12T13:47:10;30.70;37.90
15574;DHT22;7888;46.748;8.102;2023-09-12T13:49:36;30.80;37.80
15574;DHT22;7888;46.748;8.102;2023-09-12T13:52:02;30.90;37.30
15574;DHT22;7888;46.748;8.102;2023-09-12T13:54:28;31.00;37.20
15574;DHT22;7888;46.748;8.102;2023-09-12T13:56:53;31.10;37.10
15574;DHT22;7888;46.748;8.102;2023-09-12T13:59:19;31.20;36.90
15574;DHT22;7888;46.748;8.102;2023-09-12T14:01:46;31.30;37.30
15574;DHT22;7888;46.748;8.102;2023-09-12T14:04:12;31.40;37.70
15574;DHT22;7888;46.748;8.102;2023-09-12T14:06:39;31.50;37.70
15574;DHT22;7888;46.748;8.102;2023-09-12T14:09:05;31.50;37.90
15574;DHT22;7888;46.748;8.102;2023-09-12T14:11:31;31.60;37.60
15574;DHT22;7888;46.748;8.102;2023-09-12T14:13:56;31.80;38.00
15574;DHT22;7888;46.748;8.102;2023-09-12T14:16:22;31.80;38.10
15574;DHT22;7888;46.748;8.102;2023-09-12T14:18:48;31.90;37.80
15574;DHT22;7888;46.748;8.102;2023-09-12T14:21:13;31.90;37.60
15574;DHT22;7888;46.748;8.102;2023-09-12T14:23:39;31.90;37.50
15574;DHT22;7888;46.748;8.102;2023-09-12T14:26:05;31.90;37.50
15574;DHT22;7888;46.748;8.102;2023-09-12T14:28:31;31.90;37.30
15574;DHT22;7888;46.748;8.102;2023-09-12T14:30:59;31.80;37.20
15574;DHT22;7888;46.748;8.102;2023-09-12T14:33:26;31.80;37.00
15574;DHT22;7888;46.748;8.102;2023-09-12T14:35:51;31.70;37.30
15574;DHT22;7888;46.748;8.102;2023-09-12T14:38:17;31.60;37.80
15574;DHT22;7888;46.748;8.102;2023-09-12T14:40:43;31.60;38.40
15574;DHT22;7888;46.748;8.102;2023-09-12T14:43:08;31.60;38.60
15574;DHT22;7888;46.748;8.102;2023-09-12T14:45:34;31.60;38.60
15574;DHT22;7888;46.748;8.102;2023-09-12T14:48:00;31.60;38.20
15574;DHT22;7888;46.748;8.102;2023-09-12T14:50:25;31.70;38.40
15574;DHT22;7888;46.748;8.102;2023-09-12T14:52:54;31.70;38.10
15574;DHT22;7888;46.748;8.102;2023-09-12T14:55:21;31.80;37.90
15574;DHT22;7888;46.748;8.102;2023-09-12T14:57:47;31.80;38.10
15574;DHT22;7888;46.748;8.102;2023-09-12T15:00:14;31.70;38.10
15574;DHT22;7888;46.748;8.102;2023-09-12T15:02:40;31.70;38.60
15574;DHT22;7888;46.748;8.102;2023-09-12T15:05:07;31.60;38.90
15574;DHT22;7888;46.748;8.102;2023-09-12T15:07:33;31.50;39.10
15574;DHT22;7888;46.748;8.102;2023-09-12T15:10:00;31.40;38.90
15574;DHT22;7888;46.748;8.102;2023-09-12T15:12:27;31.40;38.80
15574;DHT22;7888;46.748;8.102;2023-09-12T15:14:53;31.30;38.80
15574;DHT22;7888;46.748;8.102;2023-09-12T15:17:19;31.30;39.00
15574;DHT22;7888;46.748;8.102;2023-09-12T15:19:44;31.20;38.90
15574;DHT22;7888;46.748;8.102;2023-09-12T15:22:10;31.10;39.30
15574;DHT22;7888;46.748;8.102;2023-09-12T15:24:36;31.10;38.50
15574;DHT22;7888;46.748;8.102;2023-09-12T15:27:02;31.00;38.80
15574;DHT22;7888;46.748;8.102;2023-09-12T15:29:28;30.90;38.80
15574;DHT22;7888;46.748;8.102;2023-09-12T15:31:54;30.80;39.10
15574;DHT22;7888;46.748;8.102;2023-09-12T15:34:20;30.70;39.30
15574;DHT22;7888;46.748;8.102;2023-09-12T15:36:46;30.60;39.50
15574;DHT22;7888;46.748;8.102;2023-09-12T15:39:13;30.50;39.60
15574;DHT22;7888;46.748;8.102;2023-09-12T15:41:40;30.40;39.30
15574;DHT22;7888;46.748;8.102;2023-09-12T15:44:06;30.30;39.20
15574;DHT22;7888;46.748;8.102;2023-09-12T15:46:33;30.20;39.40
15574;DHT22;7888;46.748;8.102;2023-09-12T15:48:58;30.20;39.70
15574;DHT22;7888;46.748;8.102;2023-09-12T15:51:24;30.10;40.00
15574;DHT22;7888;46.748;8.102;2023-09-12T15:53:51;30.10;40.20
15574;DHT22;7888;46.748;8.102;2023-09-12T15:56:17;29.90;40.30
15574;DHT22;7888;46.748;8.102;2023-09-12T15:58:46;29.90;40.60